createdAt,value
2017-12-12T00:00:52.867Z,95.12
2017-12-12T00:01:52.881Z,95.12
2017-12-12T00:02:52.892Z,95.6
2017-12-12T00:03:52.917Z,95.6
2017-12-12T00:04:52.922Z,95.31
2017-12-12T00:05:52.935Z,95.22
2017-12-12T00:06:52.698Z,94.46
2017-12-12T00:07:52.966Z,94.93
2017-12-12T00:08:53.027Z,95.22
2017-12-12T00:09:52.738Z,95.22
2017-12-12T00:10:53.005Z,95.22
2017-12-12T00:11:53.018Z,94.93
2017-12-12T00:12:53.033Z,95.12
2017-12-12T00:13:53.046Z,95.31
2017-12-12T00:14:53.059Z,95.12
2017-12-12T00:15:53.075Z,95.22
2017-12-12T00:16:53.088Z,95.26
2017-12-12T00:17:52.848Z,96.08
2017-12-12T00:18:52.861Z,95.98
2017-12-12T00:19:53.150Z,95.84
2017-12-12T00:20:53.141Z,96.12
2017-12-12T00:21:53.156Z,95.79
2017-12-12T00:22:53.181Z,95.93
2017-12-12T00:23:53.183Z,95.79
2017-12-12T00:24:53.249Z,95.79
2017-12-12T00:25:53.213Z,95.88
2017-12-12T00:26:53.232Z,95.79
2017-12-12T00:27:53.243Z,95.6
2017-12-12T00:28:52.998Z,96.08
2017-12-12T00:29:53.268Z,95.88
2017-12-12T00:30:53.283Z,96.08
2017-12-12T00:31:53.295Z,95.98
2017-12-12T00:32:53.308Z,96.17
2017-12-12T00:33:53.068Z,95.6
2017-12-12T00:34:53.333Z,95.69
2017-12-12T00:35:53.348Z,95.31
2017-12-12T00:36:53.385Z,95.6
2017-12-12T00:37:53.376Z,95.98
2017-12-12T00:38:53.391Z,95.79
2017-12-12T00:39:53.200Z,95.31
2017-12-12T00:40:53.420Z,95.22
2017-12-12T00:41:53.431Z,95.98
2017-12-12T00:42:53.449Z,95.31
2017-12-12T00:43:53.205Z,95.41
2017-12-12T00:44:53.486Z,95.88
2017-12-12T00:45:53.484Z,96.17
2017-12-12T00:46:53.503Z,95.5
2017-12-12T00:47:53.513Z,95.79
2017-12-12T00:48:53.530Z,95.98
2017-12-12T00:49:53.543Z,96.08
2017-12-12T00:50:53.557Z,96.26
2017-12-12T00:51:53.568Z,96.26
2017-12-12T00:52:53.582Z,95.79
2017-12-12T00:53:53.597Z,95.79
2017-12-12T00:54:53.406Z,95.88
2017-12-12T00:55:53.637Z,96.36
2017-12-12T00:56:53.637Z,95.98
2017-12-12T00:57:53.652Z,95.98
2017-12-12T00:58:53.664Z,95.79
2017-12-12T00:59:53.681Z,95.88
2017-12-12T01:00:53.695Z,95.69
2017-12-12T01:01:53.710Z,96.36
2017-12-12T01:02:53.719Z,96.17
2017-12-12T01:03:53.734Z,95.98
2017-12-12T01:04:53.747Z,96.08
2017-12-12T01:05:53.764Z,95.98
2017-12-12T01:06:53.774Z,95.98
2017-12-12T01:07:53.536Z,96.08
2017-12-12T01:08:53.804Z,96.17
2017-12-12T01:09:53.823Z,95.88
2017-12-12T01:10:53.883Z,96.17
2017-12-12T01:11:53.842Z,96.03
2017-12-12T01:12:53.870Z,96.08
2017-12-12T01:13:53.881Z,95.98
2017-12-12T01:14:53.886Z,95.98
2017-12-12T01:15:53.899Z,95.6
2017-12-12T01:16:53.912Z,95.88
2017-12-12T01:17:53.674Z,96.36
2017-12-12T01:18:53.940Z,96.08
2017-12-12T01:19:53.954Z,95.69
2017-12-12T01:20:53.967Z,95.98
2017-12-12T01:21:53.731Z,95.98
2017-12-12T01:22:53.742Z,96.36
2017-12-12T01:23:54.015Z,96.08
2017-12-12T01:24:53.770Z,96.17
2017-12-12T01:25:53.850Z,95.98
2017-12-12T01:26:54.055Z,95.88
2017-12-12T01:27:54.066Z,96.26
2017-12-12T01:28:54.078Z,95.84
2017-12-12T01:29:54.090Z,96.22
2017-12-12T01:30:54.104Z,96.92
2017-12-12T01:31:54.123Z,96.17
2017-12-12T01:32:54.133Z,96.17
2017-12-12T01:33:54.150Z,96.08
2017-12-12T01:34:53.910Z,95.88
2017-12-12T01:35:54.176Z,96.64
2017-12-12T01:36:54.187Z,95.88
2017-12-12T01:37:53.950Z,96.26
2017-12-12T01:38:54.218Z,95.79
2017-12-12T01:39:53.981Z,95.98
2017-12-12T01:40:54.296Z,95.69
2017-12-12T01:41:54.016Z,95.88
2017-12-12T01:42:54.271Z,96.45
2017-12-12T01:43:54.285Z,95.98
2017-12-12T01:44:54.305Z,96.08
2017-12-12T01:45:54.062Z,96.36
2017-12-12T01:46:54.327Z,96.36
2017-12-12T01:47:54.086Z,96.17
2017-12-12T01:48:54.357Z,95.69
2017-12-12T01:49:54.117Z,96.08
2017-12-12T01:50:54.384Z,96.17
2017-12-12T01:51:54.143Z,95.69
2017-12-12T01:52:54.409Z,95.69
2017-12-12T01:53:54.424Z,95.6
2017-12-12T01:54:54.184Z,95.98
2017-12-12T01:55:54.249Z,95.79
2017-12-12T01:56:54.465Z,95.79
2017-12-12T01:57:54.478Z,96.08
2017-12-12T01:58:54.241Z,96.08
2017-12-12T01:59:54.508Z,95.79
2017-12-12T02:00:54.540Z,95.98
2017-12-12T02:01:54.565Z,95.31
2017-12-12T02:02:54.549Z,95.31
2017-12-12T02:03:54.565Z,95.22
2017-12-12T02:04:54.585Z,95.03
2017-12-12T02:05:54.340Z,95.22
2017-12-12T02:06:54.616Z,95.41
2017-12-12T02:07:54.620Z,95.03
2017-12-12T02:08:54.634Z,95.41
2017-12-12T02:09:54.650Z,95.41
2017-12-12T02:10:54.663Z,95.22
2017-12-12T02:11:54.726Z,95.69
2017-12-12T02:12:54.439Z,95.22
2017-12-12T02:13:54.706Z,95.6
2017-12-12T02:14:54.721Z,95.69
2017-12-12T02:15:54.732Z,95.03
2017-12-12T02:16:54.749Z,94.46
2017-12-12T02:17:54.772Z,94.56
2017-12-12T02:18:54.773Z,94.93
2017-12-12T02:19:54.536Z,94.74
2017-12-12T02:20:54.806Z,94.65
2017-12-12T02:21:54.821Z,94.74
2017-12-12T02:22:54.832Z,94.08
2017-12-12T02:23:54.845Z,94.18
2017-12-12T02:24:54.606Z,94.08
2017-12-12T02:25:54.876Z,94.84
2017-12-12T02:26:54.937Z,94.46
2017-12-12T02:27:54.900Z,94.84
2017-12-12T02:28:54.664Z,93.89
2017-12-12T02:29:54.676Z,94.27
2017-12-12T02:30:54.947Z,94.08
2017-12-12T02:31:54.959Z,94.08
2017-12-12T02:32:54.974Z,94.27
2017-12-12T02:33:54.988Z,94.32
2017-12-12T02:34:55.010Z,94.51
2017-12-12T02:35:55.014Z,93.46
2017-12-12T02:36:54.784Z,93.56
2017-12-12T02:37:55.046Z,93.65
2017-12-12T02:38:55.057Z,92.99
2017-12-12T02:39:54.818Z,92.99
2017-12-12T02:40:55.091Z,92.9
2017-12-12T02:41:55.151Z,93.08
2017-12-12T02:42:54.864Z,92.99
2017-12-12T02:43:55.132Z,92.9
2017-12-12T02:44:54.890Z,92.8
2017-12-12T02:45:55.155Z,92.71
2017-12-12T02:46:55.190Z,92.23
2017-12-12T02:47:55.184Z,92.33
2017-12-12T02:48:55.203Z,92.52
2017-12-12T02:49:55.215Z,92.52
2017-12-12T02:50:55.234Z,92.42
2017-12-12T02:51:54.993Z,92.42
2017-12-12T02:52:55.015Z,92.61
2017-12-12T02:53:55.276Z,92.9
2017-12-12T02:54:55.288Z,92.61
2017-12-12T02:55:55.306Z,91.38
2017-12-12T02:56:55.374Z,91.75
2017-12-12T02:57:55.330Z,92.04
2017-12-12T02:58:55.094Z,92.04
2017-12-12T02:59:55.363Z,91.85
2017-12-12T03:00:55.375Z,92.23
2017-12-12T03:01:55.392Z,92.14
2017-12-12T03:02:55.154Z,91.85
2017-12-12T03:03:55.420Z,92.23
2017-12-12T03:04:55.432Z,91.66
2017-12-12T03:05:55.459Z,91.85
2017-12-12T03:06:55.464Z,92.33
2017-12-12T03:07:55.477Z,92.14
2017-12-12T03:08:55.494Z,91.75
2017-12-12T03:09:55.507Z,91.94
2017-12-12T03:10:55.529Z,91.09
2017-12-12T03:11:55.589Z,91.47
2017-12-12T03:12:55.553Z,91.38
2017-12-12T03:13:55.315Z,90.81
2017-12-12T03:14:55.581Z,91.66
2017-12-12T03:15:55.607Z,90.62
2017-12-12T03:16:55.608Z,90.33
2017-12-12T03:17:55.622Z,91.19
2017-12-12T03:18:55.640Z,91.28
2017-12-12T03:19:55.403Z,91.52
2017-12-12T03:20:55.671Z,91.24
2017-12-12T03:21:55.685Z,91.28
2017-12-12T03:22:55.445Z,91.38
2017-12-12T03:23:55.715Z,91.09
2017-12-12T03:24:55.727Z,91.24
2017-12-12T03:25:55.745Z,91.24
2017-12-12T03:26:55.806Z,90.47
2017-12-12T03:27:55.794Z,91.42
2017-12-12T03:28:55.789Z,91.33
2017-12-12T03:29:55.802Z,91.24
2017-12-12T03:30:55.826Z,91.33
2017-12-12T03:31:55.831Z,90.57
2017-12-12T03:32:55.595Z,90.38
2017-12-12T03:33:55.860Z,90.05
2017-12-12T03:34:55.880Z,90.14
2017-12-12T03:35:55.893Z,90
2017-12-12T03:36:55.912Z,90.57
2017-12-12T03:37:55.922Z,90.47
2017-12-12T03:38:55.684Z,90.62
2017-12-12T03:39:55.699Z,90.81
2017-12-12T03:40:55.965Z,90.09
2017-12-12T03:41:56.040Z,90.24
2017-12-12T03:42:56.003Z,89.81
2017-12-12T03:43:55.759Z,90.28
2017-12-12T03:44:55.774Z,90.09
2017-12-12T03:45:56.041Z,90.57
2017-12-12T03:46:56.072Z,90.19
2017-12-12T03:47:56.072Z,90.19
2017-12-12T03:48:56.087Z,90.38
2017-12-12T03:49:55.848Z,90.19
2017-12-12T03:50:55.863Z,89.9
2017-12-12T03:51:56.282Z,90.38
2017-12-12T03:52:56.144Z,90.47
2017-12-12T03:53:56.168Z,90.38
2017-12-12T03:54:55.922Z,90.28
2017-12-12T03:55:56.196Z,90.09
2017-12-12T03:56:56.259Z,89.62
2017-12-12T03:57:56.222Z,90.09
2017-12-12T03:58:56.237Z,89.62
2017-12-12T03:59:56.252Z,90.19
2017-12-12T04:00:56.265Z,90.38
2017-12-12T04:01:56.281Z,90.09
2017-12-12T04:02:56.293Z,90.19
2017-12-12T04:03:56.311Z,90.19
2017-12-12T04:04:56.325Z,90.38
2017-12-12T04:05:56.340Z,90.28
2017-12-12T04:06:56.454Z,90.38
2017-12-12T04:07:56.575Z,89.43
2017-12-12T04:08:56.391Z,90.38
2017-12-12T04:09:56.146Z,90.38
2017-12-12T04:10:56.413Z,90.38
2017-12-12T04:11:56.500Z,90.28
2017-12-12T04:12:56.443Z,90.38
2017-12-12T04:13:56.206Z,90.28
2017-12-12T04:14:56.474Z,89.81
2017-12-12T04:15:56.489Z,89.33
2017-12-12T04:16:56.249Z,89.05
2017-12-12T04:17:56.521Z,89.53
2017-12-12T04:18:56.534Z,89.9
2017-12-12T04:19:56.553Z,89.72
2017-12-12T04:20:56.564Z,89.62
2017-12-12T04:21:56.574Z,89.53
2017-12-12T04:22:56.595Z,89.14
2017-12-12T04:23:56.609Z,88.95
2017-12-12T04:24:56.624Z,89.05
2017-12-12T04:25:56.646Z,88.95
2017-12-12T04:26:56.703Z,88.95
2017-12-12T04:27:56.670Z,89.14
2017-12-12T04:28:56.684Z,89.33
2017-12-12T04:29:56.699Z,88.57
2017-12-12T04:30:56.714Z,89.24
2017-12-12T04:31:56.731Z,88.86
2017-12-12T04:32:56.746Z,88.86
2017-12-12T04:33:56.761Z,88.39
2017-12-12T04:34:56.778Z,88.29
2017-12-12T04:35:56.797Z,88.57
2017-12-12T04:36:56.554Z,89.05
2017-12-12T04:37:56.823Z,88.86
2017-12-12T04:38:56.844Z,88.57
2017-12-12T04:39:56.849Z,88.39
2017-12-12T04:40:56.614Z,87.91
2017-12-12T04:41:56.934Z,88.1
2017-12-12T04:42:56.645Z,88.95
2017-12-12T04:43:56.912Z,87.72
2017-12-12T04:44:56.674Z,87.53
2017-12-12T04:45:56.689Z,88.2
2017-12-12T04:46:56.959Z,88.39
2017-12-12T04:47:56.729Z,87.53
2017-12-12T04:48:56.990Z,87.43
2017-12-12T04:49:57.004Z,88.2
2017-12-12T04:50:57.019Z,87.91
2017-12-12T04:51:57.034Z,87.72
2017-12-12T04:52:57.051Z,87.53
2017-12-12T04:53:57.063Z,87.62
2017-12-12T04:54:57.077Z,87.91
2017-12-12T04:55:57.096Z,87.82
2017-12-12T04:56:57.163Z,87.72
2017-12-12T04:57:56.874Z,88.1
2017-12-12T04:58:57.142Z,87.82
2017-12-12T04:59:56.904Z,88.86
2017-12-12T05:00:57.174Z,88.57
2017-12-12T05:01:57.190Z,88.76
2017-12-12T05:02:57.200Z,88.91
2017-12-12T05:03:57.216Z,88.81
2017-12-12T05:04:57.235Z,89.33
2017-12-12T05:05:57.251Z,88.81
2017-12-12T05:06:57.264Z,88.67
2017-12-12T05:07:57.279Z,88.91
2017-12-12T05:08:57.293Z,89
2017-12-12T05:09:57.055Z,88.57
2017-12-12T05:10:57.336Z,88.62
2017-12-12T05:11:57.488Z,88.53
2017-12-12T05:12:57.100Z,88.81
2017-12-12T05:13:57.367Z,88.81
2017-12-12T05:14:57.384Z,88.24
2017-12-12T05:15:57.400Z,89
2017-12-12T05:16:57.412Z,88.57
2017-12-12T05:17:57.426Z,89
2017-12-12T05:18:57.442Z,89.1
2017-12-12T05:19:57.457Z,88.91
2017-12-12T05:20:57.220Z,89.29
2017-12-12T05:21:57.487Z,88.91
2017-12-12T05:22:57.509Z,88.91
2017-12-12T05:23:57.516Z,88.72
2017-12-12T05:24:57.530Z,89.2
2017-12-12T05:25:57.293Z,88.34
2017-12-12T05:26:57.611Z,89
2017-12-12T05:27:57.574Z,89.39
2017-12-12T05:28:57.591Z,89.67
2017-12-12T05:29:57.353Z,88.72
2017-12-12T05:30:57.628Z,87.87
2017-12-12T05:31:57.690Z,87.3
2017-12-12T05:32:57.650Z,87.11
2017-12-12T05:33:57.668Z,86.44
2017-12-12T05:34:57.682Z,85.78
2017-12-12T05:35:57.721Z,85.87
2017-12-12T05:36:57.718Z,85.21
2017-12-12T05:37:57.471Z,84.26
2017-12-12T05:38:57.754Z,83.59
2017-12-12T05:39:57.755Z,84.17
2017-12-12T05:40:57.770Z,82.93
2017-12-12T05:41:57.852Z,83.78
2017-12-12T05:42:57.800Z,83.31
2017-12-12T05:43:57.560Z,83.69
2017-12-12T05:44:57.827Z,82.46
2017-12-12T05:45:57.841Z,82.7
2017-12-12T05:46:57.855Z,82.46
2017-12-12T05:47:57.618Z,82.89
2017-12-12T05:48:57.633Z,82.46
2017-12-12T05:49:57.646Z,82.42
2017-12-12T05:50:57.915Z,82.7
2017-12-12T05:51:57.928Z,81.7
2017-12-12T05:52:57.942Z,82.74
2017-12-12T05:53:57.958Z,81.75
2017-12-12T05:54:57.971Z,81.6
2017-12-12T05:55:57.739Z,81.75
2017-12-12T05:56:58.113Z,82.65
2017-12-12T05:57:58.022Z,81.85
2017-12-12T05:58:58.032Z,82.7
2017-12-12T05:59:58.046Z,81.85
2017-12-12T06:00:58.061Z,82.17
2017-12-12T06:01:58.074Z,82.13
2017-12-12T06:02:58.091Z,81.79
2017-12-12T06:03:58.105Z,81.13
2017-12-12T06:04:57.865Z,80.75
2017-12-12T06:05:58.132Z,79.52
2017-12-12T06:06:58.148Z,79.28
2017-12-12T06:07:58.175Z,79
2017-12-12T06:08:58.176Z,79.1
2017-12-12T06:09:58.190Z,79
2017-12-12T06:10:58.206Z,78.72
2017-12-12T06:11:58.268Z,79
2017-12-12T06:12:58.234Z,79.28
2017-12-12T06:13:58.250Z,79.1
2017-12-12T06:14:58.262Z,79.28
2017-12-12T06:15:58.281Z,79
2017-12-12T06:16:58.291Z,79.57
2017-12-12T06:17:58.306Z,79.1
2017-12-12T06:18:58.067Z,79.28
2017-12-12T06:19:58.333Z,79.47
2017-12-12T06:20:58.349Z,80.14
2017-12-12T06:21:58.362Z,79.57
2017-12-12T06:22:58.376Z,79.57
2017-12-12T06:23:58.399Z,79.19
2017-12-12T06:24:58.153Z,79.28
2017-12-12T06:25:58.418Z,79.19
2017-12-12T06:26:58.532Z,79.66
2017-12-12T06:27:58.458Z,79.28
2017-12-12T06:28:58.461Z,79.57
2017-12-12T06:29:58.225Z,79.66
2017-12-12T06:30:58.492Z,79.19
2017-12-12T06:31:58.504Z,79.57
2017-12-12T06:32:58.522Z,79.28
2017-12-12T06:33:58.532Z,79.76
2017-12-12T06:34:58.550Z,79.25
2017-12-12T06:35:58.561Z,79.34
2017-12-12T06:36:58.591Z,80.19
2017-12-12T06:37:58.588Z,80.48
2017-12-12T06:38:58.604Z,80.1
2017-12-12T06:39:58.617Z,80.67
2017-12-12T06:40:58.629Z,80
2017-12-12T06:41:58.644Z,80.29
2017-12-12T06:42:58.406Z,80.95
2017-12-12T06:43:58.429Z,80.95
2017-12-12T06:44:58.686Z,80.95
2017-12-12T06:45:58.702Z,80.76
2017-12-12T06:46:58.716Z,81.14
2017-12-12T06:47:58.729Z,80.95
2017-12-12T06:48:58.742Z,81.05
2017-12-12T06:49:58.763Z,80.95
2017-12-12T06:50:58.769Z,80.86
2017-12-12T06:51:58.784Z,81.05
2017-12-12T06:52:58.544Z,81.24
2017-12-12T06:53:58.559Z,81.52
2017-12-12T06:54:58.824Z,81.05
2017-12-12T06:55:58.839Z,81.43
2017-12-12T06:56:58.857Z,80.95
2017-12-12T06:57:58.924Z,81.14
2017-12-12T06:58:58.627Z,81.43
2017-12-12T06:59:58.897Z,81.52
2017-12-12T07:00:58.909Z,80.86
2017-12-12T07:01:58.971Z,81.71
2017-12-12T07:02:58.937Z,81.62
2017-12-12T07:03:58.949Z,81.62
2017-12-12T07:04:58.711Z,81.99
2017-12-12T07:05:58.984Z,81.99
2017-12-12T07:06:59.001Z,81.9
2017-12-12T07:07:58.755Z,81.62
2017-12-12T07:08:58.768Z,81.9
2017-12-12T07:09:59.034Z,82.09
2017-12-12T07:10:58.792Z,82.09
2017-12-12T07:11:59.060Z,81.52
2017-12-12T07:12:59.125Z,81.81
2017-12-12T07:13:59.093Z,81.71
2017-12-12T07:14:58.850Z,81.81
2017-12-12T07:15:59.116Z,81.71
2017-12-12T07:16:59.128Z,81.52
2017-12-12T07:17:59.142Z,81.71
2017-12-12T07:18:58.907Z,81.62
2017-12-12T07:19:59.171Z,81.81
2017-12-12T07:20:58.934Z,81.71
2017-12-12T07:21:59.198Z,81.9
2017-12-12T07:22:58.958Z,82.18
2017-12-12T07:23:58.973Z,81.9
2017-12-12T07:24:59.238Z,81.9
2017-12-12T07:25:59.259Z,81.71
2017-12-12T07:26:59.273Z,81.81
2017-12-12T07:27:59.335Z,81.99
2017-12-12T07:28:59.297Z,81.81
2017-12-12T07:29:59.310Z,81.52
2017-12-12T07:30:59.069Z,81.52
2017-12-12T07:31:59.334Z,81.99
2017-12-12T07:32:59.398Z,81.71
2017-12-12T07:33:59.364Z,81.71
2017-12-12T07:34:59.375Z,81.9
2017-12-12T07:35:59.138Z,81.71
2017-12-12T07:36:59.150Z,81.71
2017-12-12T07:37:59.417Z,80.76
2017-12-12T07:38:59.439Z,81.14
2017-12-12T07:39:59.445Z,81.14
2017-12-12T07:40:59.204Z,80.19
2017-12-12T07:41:59.490Z,80
2017-12-12T07:42:59.534Z,80.48
2017-12-12T07:43:59.500Z,80.48
2017-12-12T07:44:59.517Z,80.95
2017-12-12T07:45:59.277Z,80.57
2017-12-12T07:46:59.540Z,80.57
2017-12-12T07:47:59.299Z,80.76
2017-12-12T07:48:59.571Z,80.29
2017-12-12T07:49:59.578Z,80.48
2017-12-12T07:50:59.597Z,80.57
2017-12-12T07:51:59.607Z,80.67
2017-12-12T07:52:59.625Z,80.29
2017-12-12T07:53:59.632Z,80.1
2017-12-12T07:54:59.647Z,80.48
2017-12-12T07:55:59.662Z,80.29
2017-12-12T07:56:59.675Z,80.38
2017-12-12T07:57:59.738Z,80.19
2017-12-12T07:58:59.449Z,79.53
2017-12-12T07:59:59.463Z,79.82
2017-12-12T08:00:59.727Z,80
2017-12-12T08:01:59.740Z,79.91
2017-12-12T08:02:59.756Z,79.91
2017-12-12T08:03:59.769Z,80
2017-12-12T08:04:59.781Z,80
2017-12-12T08:05:59.803Z,80.29
2017-12-12T08:06:59.812Z,80.57
2017-12-12T08:07:59.826Z,80.1
2017-12-12T08:08:59.844Z,79.91
2017-12-12T08:09:59.599Z,80
2017-12-12T08:10:59.613Z,80.57
2017-12-12T08:11:59.880Z,80
2017-12-12T08:12:59.946Z,80.19
2017-12-12T08:13:59.904Z,80.48
2017-12-12T08:14:59.664Z,80.29
2017-12-12T08:15:59.932Z,80.25
2017-12-12T08:16:59.949Z,81.24
2017-12-12T08:17:59.977Z,81.33
2017-12-12T08:18:59.974Z,80.57
2017-12-12T08:19:59.988Z,80.86
2017-12-12T08:20:59.754Z,80.38
2017-12-12T08:22:00.015Z,79.91
2017-12-12T08:22:59.775Z,80.29
2017-12-12T08:24:00.041Z,80.57
2017-12-12T08:25:00.058Z,79.82
2017-12-12T08:26:00.068Z,79.91
2017-12-12T08:27:00.090Z,79.25
2017-12-12T08:28:00.096Z,79.63
2017-12-12T08:28:59.858Z,78.58
2017-12-12T08:30:00.172Z,78.87
2017-12-12T08:31:00.137Z,79.06
2017-12-12T08:32:00.151Z,79.06
2017-12-12T08:33:00.164Z,78.67
2017-12-12T08:34:00.178Z,79.25
2017-12-12T08:35:00.209Z,79.44
2017-12-12T08:36:00.219Z,79.34
2017-12-12T08:37:00.219Z,79.34
2017-12-12T08:38:00.229Z,79.25
2017-12-12T08:39:00.245Z,79.53
2017-12-12T08:40:00.259Z,79.25
2017-12-12T08:41:00.022Z,78.2
2017-12-12T08:42:00.291Z,79.06
2017-12-12T08:43:00.300Z,78.87
2017-12-12T08:44:00.060Z,78.96
2017-12-12T08:45:00.379Z,78.96
2017-12-12T08:46:00.338Z,78.96
2017-12-12T08:47:00.100Z,78.39
2017-12-12T08:48:00.113Z,78.2
2017-12-12T08:49:00.379Z,78.39
2017-12-12T08:50:00.496Z,79.15
2017-12-12T08:51:00.407Z,79.06
2017-12-12T08:52:00.420Z,79.06
2017-12-12T08:53:00.183Z,79.25
2017-12-12T08:54:00.459Z,78.87
2017-12-12T08:55:00.462Z,79.06
2017-12-12T08:56:00.478Z,78.49
2017-12-12T08:57:00.495Z,78.11
2017-12-12T08:58:00.508Z,78.11
2017-12-12T08:59:00.525Z,78.3
2017-12-12T09:00:00.584Z,79.15
2017-12-12T09:01:00.296Z,78.83
2017-12-12T09:02:00.564Z,79.25
2017-12-12T09:03:00.577Z,78.87
2017-12-12T09:04:00.336Z,78.39
2017-12-12T09:05:00.604Z,78.64
2017-12-12T09:06:00.625Z,78.83
2017-12-12T09:07:00.633Z,78.96
2017-12-12T09:08:00.646Z,78.77
2017-12-12T09:09:00.408Z,78.45
2017-12-12T09:10:00.419Z,78.49
2017-12-12T09:11:00.697Z,78.39
2017-12-12T09:12:00.705Z,78.3
2017-12-12T09:13:00.718Z,78.11
2017-12-12T09:14:00.727Z,77.54
2017-12-12T09:15:00.488Z,78.11
2017-12-12T09:16:00.814Z,77.83
2017-12-12T09:17:00.773Z,77.35
2017-12-12T09:18:00.530Z,77.35
2017-12-12T09:19:00.850Z,77.35
2017-12-12T09:20:00.810Z,77.45
2017-12-12T09:21:00.822Z,77.06
2017-12-12T09:22:00.840Z,77.64
2017-12-12T09:23:00.851Z,77.25
2017-12-12T09:24:00.863Z,77.25
2017-12-12T09:25:00.879Z,77.25
2017-12-12T09:26:00.890Z,77.45
2017-12-12T09:27:00.905Z,77.45
2017-12-12T09:28:00.924Z,77.06
2017-12-12T09:29:00.928Z,77.06
2017-12-12T09:30:00.954Z,77.35
2017-12-12T09:31:01.010Z,77.35
2017-12-12T09:32:00.973Z,77.16
2017-12-12T09:33:00.987Z,76.68
2017-12-12T09:34:01.002Z,77.16
2017-12-12T09:35:01.017Z,76.31
2017-12-12T09:36:01.126Z,76.59
2017-12-12T09:37:01.051Z,76.31
2017-12-12T09:38:01.059Z,76.68
2017-12-12T09:39:01.071Z,77.06
2017-12-12T09:40:00.831Z,77.73
2017-12-12T09:41:01.100Z,77.45
2017-12-12T09:42:01.113Z,77.06
2017-12-12T09:43:00.875Z,76.84
2017-12-12T09:44:01.147Z,76.68
2017-12-12T09:45:01.156Z,76.68
2017-12-12T09:46:01.220Z,77.06
2017-12-12T09:47:01.185Z,76.4
2017-12-12T09:48:01.197Z,76.4
2017-12-12T09:49:01.210Z,76.78
2017-12-12T09:50:01.232Z,76.68
2017-12-12T09:51:01.236Z,77.06
2017-12-12T09:52:01.253Z,76.97
2017-12-12T09:53:01.266Z,77.06
2017-12-12T09:54:01.382Z,76.31
2017-12-12T09:55:01.296Z,75.84
2017-12-12T09:56:01.309Z,75.93
2017-12-12T09:57:01.320Z,76.78
2017-12-12T09:58:01.080Z,76.5
2017-12-12T09:59:01.364Z,76.68
2017-12-12T10:00:01.108Z,75.93
2017-12-12T10:01:01.428Z,76.12
2017-12-12T10:02:01.139Z,76.12
2017-12-12T10:03:01.152Z,75.93
2017-12-12T10:04:01.167Z,75.45
2017-12-12T10:05:01.432Z,75.84
2017-12-12T10:06:01.453Z,76.12
2017-12-12T10:07:01.464Z,76.12
2017-12-12T10:08:01.232Z,76.31
2017-12-12T10:09:01.505Z,75.74
2017-12-12T10:10:01.504Z,76.03
2017-12-12T10:11:01.517Z,75.93
2017-12-12T10:12:01.279Z,75.64
2017-12-12T10:13:01.292Z,75.36
2017-12-12T10:14:01.560Z,75.17
2017-12-12T10:15:01.581Z,75.78
2017-12-12T10:16:01.639Z,74.35
2017-12-12T10:17:01.603Z,74.07
2017-12-12T10:18:01.618Z,74.54
2017-12-12T10:19:01.639Z,74.64
2017-12-12T10:20:01.646Z,73.79
2017-12-12T10:21:01.718Z,73.5
2017-12-12T10:22:01.674Z,73.69
2017-12-12T10:23:01.688Z,73.31
2017-12-12T10:24:01.708Z,73.03
2017-12-12T10:25:01.720Z,73.03
2017-12-12T10:26:01.480Z,73.41
2017-12-12T10:27:01.747Z,73.6
2017-12-12T10:28:01.784Z,74.73
2017-12-12T10:29:01.778Z,74.98
2017-12-12T10:30:01.795Z,75.45
2017-12-12T10:31:01.856Z,75.4
2017-12-12T10:32:01.820Z,75.02
2017-12-12T10:33:01.837Z,73.97
2017-12-12T10:34:01.596Z,73.97
2017-12-12T10:35:01.870Z,73.69
2017-12-12T10:36:01.879Z,73.5
2017-12-12T10:37:01.896Z,73.5
2017-12-12T10:38:01.908Z,72.74
2017-12-12T10:39:01.928Z,72.84
2017-12-12T10:40:01.940Z,73.31
2017-12-12T10:41:01.966Z,73.6
2017-12-12T10:42:01.715Z,73.69
2017-12-12T10:43:01.729Z,73.31
2017-12-12T10:44:01.997Z,73.12
2017-12-12T10:45:01.757Z,72.93
2017-12-12T10:46:02.025Z,73.5
2017-12-12T10:47:01.837Z,73.88
2017-12-12T10:48:02.055Z,73.69
2017-12-12T10:49:02.069Z,74.26
2017-12-12T10:50:01.833Z,73.5
2017-12-12T10:51:02.150Z,73.22
2017-12-12T10:52:02.112Z,72.45
2017-12-12T10:53:01.874Z,72.08
2017-12-12T10:54:02.142Z,71.98
2017-12-12T10:55:02.158Z,71.8
2017-12-12T10:56:01.918Z,72.27
2017-12-12T10:57:02.202Z,72.55
2017-12-12T10:58:02.204Z,72.08
2017-12-12T10:59:02.215Z,72.64
2017-12-12T11:00:01.976Z,72.84
2017-12-12T11:01:02.244Z,73.31
2017-12-12T11:02:02.311Z,72.84
2017-12-12T11:03:02.272Z,72.55
2017-12-12T11:04:02.291Z,72.45
2017-12-12T11:05:02.302Z,71.8
2017-12-12T11:06:02.316Z,71.7
2017-12-12T11:07:02.079Z,72.27
2017-12-12T11:08:02.094Z,72.27
2017-12-12T11:09:02.360Z,72.45
2017-12-12T11:10:02.123Z,71.98
2017-12-12T11:11:02.389Z,71.6
2017-12-12T11:12:02.405Z,72.27
2017-12-12T11:13:02.419Z,73.27
2017-12-12T11:14:02.435Z,73.65
2017-12-12T11:15:02.455Z,73.65
2017-12-12T11:16:02.463Z,74.32
2017-12-12T11:17:02.532Z,74.03
2017-12-12T11:18:02.488Z,74.6
2017-12-12T11:19:02.257Z,74.69
2017-12-12T11:20:02.519Z,75.55
2017-12-12T11:21:02.533Z,74.6
2017-12-12T11:22:02.548Z,74.13
2017-12-12T11:23:02.562Z,74.03
2017-12-12T11:24:02.322Z,74.41
2017-12-12T11:25:02.590Z,74.51
2017-12-12T11:26:02.622Z,74.22
2017-12-12T11:27:02.618Z,74.32
2017-12-12T11:28:02.635Z,74.51
2017-12-12T11:29:02.394Z,74.41
2017-12-12T11:30:02.406Z,75.36
2017-12-12T11:31:02.673Z,75.45
2017-12-12T11:32:02.740Z,75.17
2017-12-12T11:33:02.701Z,76.31
2017-12-12T11:34:02.719Z,76.03
2017-12-12T11:35:02.476Z,76.12
2017-12-12T11:36:02.744Z,76.12
2017-12-12T11:37:02.505Z,76.31
2017-12-12T11:38:02.778Z,75.26
2017-12-12T11:39:02.784Z,75.55
2017-12-12T11:40:02.805Z,75.84
2017-12-12T11:41:02.819Z,75.45
2017-12-12T11:42:02.830Z,75.45
2017-12-12T11:43:02.854Z,74.6
2017-12-12T11:44:02.856Z,75.07
2017-12-12T11:45:02.867Z,75.17
2017-12-12T11:46:02.883Z,75.74
2017-12-12T11:47:02.946Z,75.84
2017-12-12T11:48:02.910Z,75.36
2017-12-12T11:49:02.672Z,76.21
2017-12-12T11:50:02.687Z,75.36
2017-12-12T11:51:02.964Z,74.98
2017-12-12T11:52:02.985Z,74.32
2017-12-12T11:53:02.984Z,73.65
2017-12-12T11:54:02.992Z,74.03
2017-12-12T11:55:02.757Z,73.56
2017-12-12T11:56:02.769Z,74.32
2017-12-12T11:57:03.086Z,73.94
2017-12-12T11:58:02.798Z,74.13
2017-12-12T11:59:03.064Z,74.6
2017-12-12T12:00:02.825Z,74.13
2017-12-12T12:01:03.094Z,74.6
2017-12-12T12:02:02.903Z,74.6
2017-12-12T12:03:03.123Z,73.84
2017-12-12T12:04:02.880Z,74.32
2017-12-12T12:05:03.148Z,74.32
2017-12-12T12:06:03.164Z,74.13
2017-12-12T12:07:03.175Z,74.69
2017-12-12T12:08:03.188Z,74.6
2017-12-12T12:09:03.204Z,74.51
2017-12-12T12:10:03.214Z,73.65
2017-12-12T12:11:03.229Z,73.75
2017-12-12T12:12:03.244Z,73.65
2017-12-12T12:13:03.261Z,72.89
2017-12-12T12:14:03.019Z,73.65
2017-12-12T12:15:03.286Z,74.22
2017-12-12T12:16:03.048Z,74.41
2017-12-12T12:17:03.363Z,74.32
2017-12-12T12:18:03.404Z,74.32
2017-12-12T12:19:03.354Z,74.6
2017-12-12T12:20:03.355Z,74.6
2017-12-12T12:21:03.371Z,74.41
2017-12-12T12:22:03.384Z,74.03
2017-12-12T12:23:03.144Z,74.51
2017-12-12T12:24:03.409Z,74.98
2017-12-12T12:25:03.425Z,75.45
2017-12-12T12:26:03.185Z,75.55
2017-12-12T12:27:03.454Z,75.55
2017-12-12T12:28:03.522Z,75.93
2017-12-12T12:29:03.225Z,76.21
2017-12-12T12:30:03.493Z,76.31
2017-12-12T12:31:03.523Z,76.12
2017-12-12T12:32:03.571Z,75.45
2017-12-12T12:33:03.532Z,75.26
2017-12-12T12:34:03.303Z,74.64
2017-12-12T12:35:03.561Z,75.17
2017-12-12T12:36:03.575Z,75.55
2017-12-12T12:37:03.591Z,75.64
2017-12-12T12:38:03.603Z,76.31
2017-12-12T12:39:03.386Z,76.03
2017-12-12T12:40:03.633Z,75.45
2017-12-12T12:41:03.647Z,75.36
2017-12-12T12:42:03.405Z,76.31
2017-12-12T12:43:03.669Z,76.4
2017-12-12T12:44:03.688Z,76.12
2017-12-12T12:45:03.701Z,76.78
2017-12-12T12:46:03.806Z,77.73
2017-12-12T12:47:03.778Z,77.45
2017-12-12T12:48:03.491Z,77.35
2017-12-12T12:49:03.762Z,77.54
2017-12-12T12:50:03.516Z,77.64
2017-12-12T12:51:03.784Z,77.64
2017-12-12T12:52:03.644Z,77.73
2017-12-12T12:53:03.810Z,76.87
2017-12-12T12:54:03.579Z,77.25
2017-12-12T12:55:03.838Z,77.06
2017-12-12T12:56:03.863Z,77.45
2017-12-12T12:57:03.863Z,77.54